createdAt,value
2022-12-19T00:02:21.044Z,-3.03
2022-12-19T00:04:49.741Z,-3.05
2022-12-19T00:07:17.707Z,-3.09
2022-12-19T00:09:45.759Z,-3.12
2022-12-19T00:12:18.996Z,-3.15
2022-12-19T00:14:48.061Z,-3.17
2022-12-19T00:17:15.622Z,-3.17
2022-12-19T00:19:43.815Z,-3.17
2022-12-19T00:22:12.518Z,-3.17
2022-12-19T00:24:41.923Z,-3.18
2022-12-19T00:27:11.599Z,-3.18
2022-12-19T00:29:39.752Z,-3.16
2022-12-19T00:32:07.475Z,-3.14
2022-12-19T00:34:36.086Z,-3.14
2022-12-19T00:37:03.701Z,-3.15
2022-12-19T00:39:31.961Z,-3.16
2022-12-19T00:41:59.907Z,-3.14
2022-12-19T00:44:27.517Z,-3.12
2022-12-19T00:46:55.355Z,-3.11
2022-12-19T00:49:23.985Z,-3.09
2022-12-19T00:51:51.875Z,-3.08
2022-12-19T00:54:19.328Z,-3.08
2022-12-19T00:56:47.271Z,-3.08
2022-12-19T00:59:14.831Z,-3.08
2022-12-19T01:01:45.912Z,-3.10
2022-12-19T01:04:31.244Z,-3.12
2022-12-19T01:07:03.131Z,-3.14
2022-12-19T01:09:33.876Z,-3.14
2022-12-19T01:12:20.460Z,-3.16
2022-12-19T01:14:54.653Z,-3.17
2022-12-19T01:17:38.714Z,-3.16
2022-12-19T01:20:29.025Z,-3.15
2022-12-19T01:23:00.489Z,-3.15
2022-12-19T01:25:28.873Z,-3.16
2022-12-19T01:27:57.130Z,-3.17
2022-12-19T01:30:24.724Z,-3.16
2022-12-19T01:32:53.616Z,-3.15
2022-12-19T01:35:21.293Z,-3.16
2022-12-19T01:37:51.204Z,-3.16
2022-12-19T01:40:18.858Z,-3.17
2022-12-19T01:42:45.639Z,-3.18
2022-12-19T01:45:20.034Z,-3.20
2022-12-19T01:48:32.992Z,-3.23
2022-12-19T01:51:02.684Z,-3.30
2022-12-19T01:53:49.952Z,-3.33
2022-12-19T01:56:18.325Z,-3.35
2022-12-19T01:58:48.833Z,-3.37
2022-12-19T02:01:15.790Z,-3.38
2022-12-19T02:03:42.621Z,-3.40
2022-12-19T02:06:10.649Z,-3.42
2022-12-19T02:08:37.611Z,-3.44
2022-12-19T02:11:05.282Z,-3.39
2022-12-19T02:13:32.270Z,-3.29
2022-12-19T02:16:07.635Z,-3.18
2022-12-19T02:19:16.112Z,-3.13
2022-12-19T02:22:21.393Z,-3.12
2022-12-19T02:25:10.133Z,-3.11
2022-12-19T02:27:51.150Z,-3.13
2022-12-19T02:30:49.184Z,-3.18
2022-12-19T02:33:48.233Z,-3.24
2022-12-19T02:36:18.924Z,-3.32
2022-12-19T02:38:54.001Z,-3.37
2022-12-19T02:41:23.771Z,-3.43
2022-12-19T02:43:58.807Z,-3.50
2022-12-19T02:46:27.527Z,-3.57
2022-12-19T02:48:55.039Z,-3.63
2022-12-19T02:51:21.857Z,-3.70
2022-12-19T02:53:48.822Z,-3.77
2022-12-19T02:56:18.446Z,-3.82
2022-12-19T02:59:24.556Z,-3.86
2022-12-19T03:02:03.195Z,-3.90
2022-12-19T03:04:58.321Z,-3.93
2022-12-19T03:07:36.230Z,-3.97
2022-12-19T03:10:21.850Z,-3.99
2022-12-19T03:12:52.385Z,-4.01
2022-12-19T03:15:20.038Z,-4.03
2022-12-19T03:17:47.204Z,-3.96
2022-12-19T03:20:20.434Z,-3.83
2022-12-19T03:22:47.740Z,-3.73
2022-12-19T03:25:15.277Z,-3.67
2022-12-19T03:27:42.087Z,-3.64
2022-12-19T03:30:10.900Z,-3.62
2022-12-19T03:32:38.495Z,-3.62
2022-12-19T03:35:12.080Z,-3.62
2022-12-19T03:37:39.801Z,-3.64
2022-12-19T03:40:10.305Z,-3.69
2022-12-19T03:42:56.783Z,-3.73
2022-12-19T03:45:31.425Z,-3.77
2022-12-19T03:47:59.768Z,-3.81
2022-12-19T03:50:30.139Z,-3.86
2022-12-19T03:53:03.615Z,-3.90
2022-12-19T03:55:33.264Z,-3.95
2022-12-19T03:58:05.898Z,-4.00
2022-12-19T04:00:34.460Z,-4.03
2022-12-19T04:03:01.888Z,-4.08
2022-12-19T04:05:28.868Z,-4.12
2022-12-19T04:07:58.974Z,-4.15
2022-12-19T04:10:26.546Z,-4.19
2022-12-19T04:12:56.884Z,-4.22
2022-12-19T04:15:33.119Z,-4.20
2022-12-19T04:17:59.984Z,-4.11
2022-12-19T04:20:26.831Z,-4.07
2022-12-19T04:22:58.762Z,-4.08
2022-12-19T04:25:46.852Z,-4.12
2022-12-19T04:28:19.321Z,-4.15
2022-12-19T04:30:46.301Z,-4.21
2022-12-19T04:33:13.178Z,-4.26
2022-12-19T04:35:40.054Z,-4.31
2022-12-19T04:38:07.121Z,-4.37
2022-12-19T04:40:40.966Z,-4.44
2022-12-19T04:43:08.607Z,-4.50
2022-12-19T04:45:35.583Z,-4.56
2022-12-19T04:48:03.473Z,-4.64
2022-12-19T04:50:30.303Z,-4.71
2022-12-19T04:52:57.356Z,-4.77
2022-12-19T04:55:24.231Z,-4.84
2022-12-19T04:57:51.142Z,-4.90
2022-12-19T05:00:18.114Z,-4.96
2022-12-19T05:02:45.763Z,-4.95
2022-12-19T05:05:12.795Z,-4.88
2022-12-19T05:07:40.695Z,-4.83
2022-12-19T05:10:07.966Z,-4.82
2022-12-19T05:12:34.996Z,-4.83
2022-12-19T05:15:01.844Z,-4.86
2022-12-19T05:17:29.124Z,-4.91
2022-12-19T05:19:55.997Z,-4.96
2022-12-19T05:22:22.793Z,-5.02
2022-12-19T05:24:49.594Z,-5.08
2022-12-19T05:27:16.453Z,-5.15
2022-12-19T05:29:43.283Z,-5.20
2022-12-19T05:32:10.250Z,-5.26
2022-12-19T05:34:37.422Z,-5.30
2022-12-19T05:37:04.276Z,-5.34
2022-12-19T05:39:31.087Z,-5.38
2022-12-19T05:41:58.048Z,-5.42
2022-12-19T05:44:25.761Z,-5.39
2022-12-19T05:46:53.289Z,-5.29
2022-12-19T05:49:20.351Z,-5.21
2022-12-19T05:51:48.394Z,-5.18
2022-12-19T05:54:15.311Z,-5.17
2022-12-19T05:56:42.166Z,-5.17
2022-12-19T05:59:09.008Z,-5.20
2022-12-19T06:01:35.939Z,-5.23
2022-12-19T06:04:04.110Z,-5.26
2022-12-19T06:06:31.357Z,-5.29
2022-12-19T06:08:58.679Z,-5.33
2022-12-19T06:11:26.979Z,-5.37
2022-12-19T06:13:53.783Z,-5.41
2022-12-19T06:16:21.336Z,-5.45
2022-12-19T06:18:48.467Z,-5.48
2022-12-19T06:21:17.013Z,-5.51
2022-12-19T06:23:44.285Z,-5.47
2022-12-19T06:26:18.295Z,-5.37
2022-12-19T06:28:46.423Z,-5.29
2022-12-19T06:31:13.446Z,-5.25
2022-12-19T06:33:40.407Z,-5.22
2022-12-19T06:36:10.350Z,-5.20
2022-12-19T06:38:37.407Z,-5.21
2022-12-19T06:41:22.945Z,-5.23
2022-12-19T06:43:53.445Z,-5.26
2022-12-19T06:46:20.913Z,-5.26
2022-12-19T06:48:48.561Z,-5.27
2022-12-19T06:51:15.797Z,-5.28
2022-12-19T06:53:42.719Z,-5.28
2022-12-19T06:56:09.621Z,-5.28
2022-12-19T06:58:36.662Z,-5.21
2022-12-19T07:01:03.488Z,-5.10
2022-12-19T07:03:40.313Z,-5.03
2022-12-19T07:06:07.663Z,-5.09
2022-12-19T07:08:34.463Z,-5.16
2022-12-19T07:11:01.328Z,-5.19
2022-12-19T07:13:28.418Z,-5.20
2022-12-19T07:15:56.690Z,-5.21
2022-12-19T07:18:23.609Z,-5.22
2022-12-19T07:20:50.493Z,-5.24
2022-12-19T07:23:18.919Z,-5.24
2022-12-19T07:25:45.815Z,-5.24
2022-12-19T07:28:12.803Z,-5.22
2022-12-19T07:30:39.643Z,-5.17
2022-12-19T07:33:08.919Z,-5.02
2022-12-19T07:35:37.930Z,-4.83
2022-12-19T07:38:05.643Z,-4.67
2022-12-19T07:40:33.394Z,-4.56
2022-12-19T07:43:04.043Z,-4.52
2022-12-19T07:45:31.207Z,-4.51
2022-12-19T07:48:01.985Z,-4.49
2022-12-19T07:50:29.256Z,-4.44
2022-12-19T07:52:56.932Z,-4.35
2022-12-19T07:55:24.007Z,-4.24
2022-12-19T07:57:51.022Z,-4.16
2022-12-19T08:00:18.174Z,-4.10
2022-12-19T08:02:45.166Z,-4.00
2022-12-19T08:05:12.846Z,-3.88
2022-12-19T08:07:40.863Z,-3.71
2022-12-19T08:10:08.541Z,-3.48
2022-12-19T08:12:35.473Z,-3.14
2022-12-19T08:15:02.325Z,-2.79
2022-12-19T08:17:29.221Z,-2.55
2022-12-19T08:19:56.145Z,-2.35
2022-12-19T08:22:23.395Z,-2.15
2022-12-19T08:24:50.749Z,-1.93
2022-12-19T08:27:17.767Z,-1.67
2022-12-19T08:31:41.069Z,-1.23
2022-12-19T08:34:08.019Z,-1.14
2022-12-19T08:36:34.964Z,-1.03
2022-12-19T08:39:01.904Z,-0.86
2022-12-19T08:41:28.915Z,-0.68
2022-12-19T08:43:56.616Z,-0.57
2022-12-19T08:46:23.724Z,-0.42
2022-12-19T08:48:50.809Z,-0.29
2022-12-19T08:51:18.202Z,-0.10
2022-12-19T08:53:45.833Z,0.05
2022-12-19T08:56:18.004Z,0.12
2022-12-19T08:58:45.152Z,0.13
2022-12-19T09:01:19.442Z,0.13
2022-12-19T09:04:23.438Z,0.28
2022-12-19T09:06:34.259Z,0.47
2022-12-19T09:09:01.296Z,0.56
2022-12-19T09:11:28.235Z,0.45
2022-12-19T09:13:58.558Z,0.45
2022-12-19T09:16:27.070Z,0.60
2022-12-19T09:18:55.622Z,0.69
2022-12-19T09:21:23.687Z,0.80
2022-12-19T09:23:52.449Z,0.84
2022-12-19T09:26:19.743Z,0.88
2022-12-19T20:49:48.156Z,-4.89
2022-12-19T20:52:15.883Z,-4.95
2022-12-19T20:54:42.933Z,-5.01
2022-12-19T20:57:10.181Z,-5.09
2022-12-19T20:59:37.049Z,-5.16
2022-12-19T21:02:04.218Z,-5.24
2022-12-19T21:04:31.567Z,-5.32
2022-12-19T21:06:58.885Z,-5.41
2022-12-19T21:09:26.031Z,-5.47
2022-12-19T21:11:53.493Z,-5.55
2022-12-19T21:14:23.408Z,-5.57
2022-12-19T21:16:52.774Z,-5.53
2022-12-19T21:19:20.367Z,-5.51
2022-12-19T21:21:47.409Z,-5.53
2022-12-19T21:24:14.664Z,-5.55
2022-12-19T21:26:41.811Z,-5.57
2022-12-19T21:29:10.084Z,-5.61
2022-12-19T21:31:37.261Z,-5.66
2022-12-19T21:34:04.383Z,-5.72
2022-12-19T21:36:31.553Z,-5.78
2022-12-19T21:39:00.259Z,-5.84
2022-12-19T21:41:27.277Z,-5.89
2022-12-19T21:43:55.253Z,-5.95
2022-12-19T21:46:24.146Z,-6.01
2022-12-19T21:48:53.293Z,-6.01
2022-12-19T21:51:21.318Z,-5.94
2022-12-19T21:53:48.600Z,-5.89
2022-12-19T21:56:25.119Z,-5.88
2022-12-19T21:58:59.743Z,-5.89
2022-12-19T22:01:27.799Z,-5.91
2022-12-19T22:04:02.124Z,-5.91
2022-12-19T22:06:31.396Z,-5.94
2022-12-19T22:09:02.278Z,-5.95
2022-12-19T22:11:29.920Z,-5.98
2022-12-19T22:14:05.426Z,-6.03
2022-12-19T22:16:32.915Z,-6.09
2022-12-19T22:19:00.136Z,-6.14
2022-12-19T22:21:31.377Z,-6.18
2022-12-19T22:24:02.138Z,-6.18
2022-12-19T22:26:31.448Z,-6.13
2022-12-19T22:28:59.667Z,-6.10
2022-12-19T22:31:27.572Z,-6.11
2022-12-19T22:33:59.456Z,-6.15
2022-12-19T22:36:28.903Z,-6.19
2022-12-19T22:38:56.525Z,-6.26
2022-12-19T22:41:23.607Z,-6.35
2022-12-19T22:43:50.621Z,-6.42
2022-12-19T22:46:19.335Z,-6.50
2022-12-19T22:48:49.748Z,-6.55
2022-12-19T22:51:17.222Z,-6.58
2022-12-19T22:53:44.086Z,-6.63
2022-12-19T22:56:13.127Z,-6.60
2022-12-19T22:58:40.962Z,-6.52
2022-12-19T23:01:24.921Z,-6.41
2022-12-19T23:03:53.429Z,-6.27
2022-12-19T23:06:20.492Z,-6.15
2022-12-19T23:08:47.594Z,-6.09
2022-12-19T23:11:17.237Z,-6.09
2022-12-19T23:13:44.541Z,-6.09
2022-12-19T23:16:14.538Z,-6.13
2022-12-19T23:18:41.907Z,-6.19
2022-12-19T23:21:13.722Z,-6.24
2022-12-19T23:23:42.700Z,-6.29
2022-12-19T23:26:15.614Z,-6.36
2022-12-19T23:28:43.938Z,-6.42
2022-12-19T23:31:12.329Z,-6.48
2022-12-19T23:33:39.125Z,-6.55
2022-12-19T23:36:08.741Z,-6.62
2022-12-19T23:38:35.743Z,-6.63
2022-12-19T23:41:07.267Z,-6.56
2022-12-19T23:43:35.672Z,-6.45
2022-12-19T23:46:07.097Z,-6.34
2022-12-19T23:48:33.991Z,-6.20
2022-12-19T23:51:04.749Z,-6.15
2022-12-19T23:53:32.077Z,-6.15
2022-12-19T23:55:59.276Z,-6.18
2022-12-19T23:58:26.123Z,-6.21
